sensor_id;sensor_type;location;lat;lon;timestamp;temperature;humidity
12115;DHT22;6121;49.810;6.418;2024-03-02T00:00:15;9.10;99.90
12115;DHT22;6121;49.810;6.418;2024-03-02T00:02:44;9.10;99.90
12115;DHT22;6121;49.810;6.418;2024-03-02T00:05:11;9.10;99.90
12115;DHT22;6121;49.810;6.418;2024-03-02T00:07:39;9.00;99.90
12115;DHT22;6121;49.810;6.418;2024-03-02T00:10:09;9.10;99.90
12115;DHT22;6121;49.810;6.418;2024-03-02T00:12:37;9.20;99.90
12115;DHT22;6121;49.810;6.418;2024-03-02T00:17:54;9.00;99.90
12115;DHT22;6121;49.810;6.418;2024-03-02T00:20:24;8.80;99.90
12115;DHT22;6121;49.810;6.418;2024-03-02T00:23:19;9.10;99.90
12115;DHT22;6121;49.810;6.418;2024-03-02T00:25:51;8.90;99.90
12115;DHT22;6121;49.810;6.418;2024-03-02T00:28:27;8.90;99.90
12115;DHT22;6121;49.810;6.418;2024-03-02T00:33:45;9.00;99.90
12115;DHT22;6121;49.810;6.418;2024-03-02T00:36:16;9.00;99.90
12115;DHT22;6121;49.810;6.418;2024-03-02T00:38:49;9.00;99.90
12115;DHT22;6121;49.810;6.418;2024-03-02T00:41:27;9.00;99.90
12115;DHT22;6121;49.810;6.418;2024-03-02T00:46:20;9.00;99.90
12115;DHT22;6121;49.810;6.418;2024-03-02T00:48:53;8.90;99.90
12115;DHT22;6121;49.810;6.418;2024-03-02T00:51:21;8.90;99.90
12115;DHT22;6121;49.810;6.418;2024-03-02T00:53:47;8.80;99.90
12115;DHT22;6121;49.810;6.418;2024-03-02T00:58:40;8.90;99.90
12115;DHT22;6121;49.810;6.418;2024-03-02T01:01:06;9.00;99.90
12115;DHT22;6121;49.810;6.418;2024-03-02T01:03:33;8.80;99.90
12115;DHT22;6121;49.810;6.418;2024-03-02T01:08:26;8.90;99.90
12115;DHT22;6121;49.810;6.418;2024-03-02T01:10:52;8.70;99.90
12115;DHT22;6121;49.810;6.418;2024-03-02T01:13:18;8.80;99.90
12115;DHT22;6121;49.810;6.418;2024-03-02T01:15:44;8.90;99.90
12115;DHT22;6121;49.810;6.418;2024-03-02T01:18:10;8.90;99.90
12115;DHT22;6121;49.810;6.418;2024-03-02T01:20:36;8.90;99.90
12115;DHT22;6121;49.810;6.418;2024-03-02T01:23:02;9.00;99.90
12115;DHT22;6121;49.810;6.418;2024-03-02T01:25:28;9.00;99.90
12115;DHT22;6121;49.810;6.418;2024-03-02T01:32:47;9.00;99.90
12115;DHT22;6121;49.810;6.418;2024-03-02T01:35:13;9.10;99.90
12115;DHT22;6121;49.810;6.418;2024-03-02T01:37:41;9.00;99.90
12115;DHT22;6121;49.810;6.418;2024-03-02T01:40:07;9.40;99.90
12115;DHT22;6121;49.810;6.418;2024-03-02T01:42:36;9.10;99.90
12115;DHT22;6121;49.810;6.418;2024-03-02T01:45:04;9.00;99.90
12115;DHT22;6121;49.810;6.418;2024-03-02T01:47:30;9.10;99.90
12115;DHT22;6121;49.810;6.418;2024-03-02T01:49:56;9.10;99.90
12115;DHT22;6121;49.810;6.418;2024-03-02T01:54:53;9.20;99.90
12115;DHT22;6121;49.810;6.418;2024-03-02T01:57:19;9.00;99.90
12115;DHT22;6121;49.810;6.418;2024-03-02T01:59:46;9.10;99.90
12115;DHT22;6121;49.810;6.418;2024-03-02T02:04:41;9.00;99.90
12115;DHT22;6121;49.810;6.418;2024-03-02T02:07:08;9.00;99.90
12115;DHT22;6121;49.810;6.418;2024-03-02T02:09:34;9.20;99.90
12115;DHT22;6121;49.810;6.418;2024-03-02T02:14:26;9.20;99.90
12115;DHT22;6121;49.810;6.418;2024-03-02T02:19:18;9.10;99.90
12115;DHT22;6121;49.810;6.418;2024-03-02T02:21:44;9.10;99.90
12115;DHT22;6121;49.810;6.418;2024-03-02T02:24:10;9.00;99.90
12115;DHT22;6121;49.810;6.418;2024-03-02T02:26:37;9.00;99.90
12115;DHT22;6121;49.810;6.418;2024-03-02T02:29:02;9.00;99.90
12115;DHT22;6121;49.810;6.418;2024-03-02T02:36:29;9.00;99.90
12115;DHT22;6121;49.810;6.418;2024-03-02T02:38:55;8.90;99.90
12115;DHT22;6121;49.810;6.418;2024-03-02T02:43:47;8.90;99.90
12115;DHT22;6121;49.810;6.418;2024-03-02T02:46:13;9.30;99.90
12115;DHT22;6121;49.810;6.418;2024-03-02T02:48:39;9.30;99.90
12115;DHT22;6121;49.810;6.418;2024-03-02T02:51:05;8.90;99.90
12115;DHT22;6121;49.810;6.418;2024-03-02T02:53:31;8.90;99.90
12115;DHT22;6121;49.810;6.418;2024-03-02T02:55:57;8.90;99.90
12115;DHT22;6121;49.810;6.418;2024-03-02T02:58:23;8.90;99.90
12115;DHT22;6121;49.810;6.418;2024-03-02T03:00:49;8.90;99.90
12115;DHT22;6121;49.810;6.418;2024-03-02T03:03:15;9.00;99.90
12115;DHT22;6121;49.810;6.418;2024-03-02T03:05:41;8.90;99.90
12115;DHT22;6121;49.810;6.418;2024-03-02T03:08:07;9.30;99.90
12115;DHT22;6121;49.810;6.418;2024-03-02T03:10:33;8.80;99.90
12115;DHT22;6121;49.810;6.418;2024-03-02T03:15:25;8.90;99.90
12115;DHT22;6121;49.810;6.418;2024-03-02T03:17:51;8.70;99.90
12115;DHT22;6121;49.810;6.418;2024-03-02T03:20:17;8.70;99.90
12115;DHT22;6121;49.810;6.418;2024-03-02T03:22:43;8.70;99.90
12115;DHT22;6121;49.810;6.418;2024-03-02T03:25:09;9.30;99.90
12115;DHT22;6121;49.810;6.418;2024-03-02T03:30:01;8.70;99.90
12115;DHT22;6121;49.810;6.418;2024-03-02T03:32:28;8.60;99.90
12115;DHT22;6121;49.810;6.418;2024-03-02T03:34:54;8.60;99.90
12115;DHT22;6121;49.810;6.418;2024-03-02T03:37:20;8.70;99.90
12115;DHT22;6121;49.810;6.418;2024-03-02T03:39:46;8.50;99.90
12115;DHT22;6121;49.810;6.418;2024-03-02T03:44:38;8.50;99.90
12115;DHT22;6121;49.810;6.418;2024-03-02T03:47:06;8.50;99.90
12115;DHT22;6121;49.810;6.418;2024-03-02T03:51:58;8.70;99.90
12115;DHT22;6121;49.810;6.418;2024-03-02T03:54:24;8.40;99.90
12115;DHT22;6121;49.810;6.418;2024-03-02T03:56:50;8.30;99.90
12115;DHT22;6121;49.810;6.418;2024-03-02T03:59:16;8.40;99.90
12115;DHT22;6121;49.810;6.418;2024-03-02T04:01:42;8.60;99.90
12115;DHT22;6121;49.810;6.418;2024-03-02T04:04:07;8.00;99.90
12115;DHT22;6121;49.810;6.418;2024-03-02T04:06:33;8.40;99.90
12115;DHT22;6121;49.810;6.418;2024-03-02T04:11:26;8.40;99.90
12115;DHT22;6121;49.810;6.418;2024-03-02T04:16:18;8.30;99.90
12115;DHT22;6121;49.810;6.418;2024-03-02T04:18:44;8.20;99.90
12115;DHT22;6121;49.810;6.418;2024-03-02T04:21:10;8.50;99.90
12115;DHT22;6121;49.810;6.418;2024-03-02T04:23:36;8.20;99.90
12115;DHT22;6121;49.810;6.418;2024-03-02T04:26:01;8.80;99.90
12115;DHT22;6121;49.810;6.418;2024-03-02T04:28:27;8.10;99.90
12115;DHT22;6121;49.810;6.418;2024-03-02T04:30:53;8.10;99.90
12115;DHT22;6121;49.810;6.418;2024-03-02T04:33:19;8.20;99.90
12115;DHT22;6121;49.810;6.418;2024-03-02T04:38:12;8.00;99.90
12115;DHT22;6121;49.810;6.418;2024-03-02T04:43:04;8.00;99.90
12115;DHT22;6121;49.810;6.418;2024-03-02T04:45:30;8.00;99.90
12115;DHT22;6121;49.810;6.418;2024-03-02T04:47:56;8.00;99.90
12115;DHT22;6121;49.810;6.418;2024-03-02T04:52:48;7.90;99.90
12115;DHT22;6121;49.810;6.418;2024-03-02T04:55:14;7.80;99.90
12115;DHT22;6121;49.810;6.418;2024-03-02T05:02:53;7.80;99.90
12115;DHT22;6121;49.810;6.418;2024-03-02T05:05:19;7.80;99.90
12115;DHT22;6121;49.810;6.418;2024-03-02T05:10:11;7.90;99.90
12115;DHT22;6121;49.810;6.418;2024-03-02T05:12:37;8.50;99.90
12115;DHT22;6121;49.810;6.418;2024-03-02T05:15:13;7.80;99.90
12115;DHT22;6121;49.810;6.418;2024-03-02T05:17:41;7.80;99.90
12115;DHT22;6121;49.810;6.418;2024-03-02T05:20:11;7.90;99.90
12115;DHT22;6121;49.810;6.418;2024-03-02T05:25:04;7.70;99.90
12115;DHT22;6121;49.810;6.418;2024-03-02T05:27:30;7.70;99.90
12115;DHT22;6121;49.810;6.418;2024-03-02T05:29:59;7.70;99.90
12115;DHT22;6121;49.810;6.418;2024-03-02T05:32:25;7.70;99.90
12115;DHT22;6121;49.810;6.418;2024-03-02T05:34:51;7.80;99.90
12115;DHT22;6121;49.810;6.418;2024-03-02T05:37:17;7.70;99.90
12115;DHT22;6121;49.810;6.418;2024-03-02T05:39:43;8.10;99.90
12115;DHT22;6121;49.810;6.418;2024-03-02T05:42:09;7.60;99.90
12115;DHT22;6121;49.810;6.418;2024-03-02T05:44:36;8.50;99.90
12115;DHT22;6121;49.810;6.418;2024-03-02T05:47:02;7.80;99.90
12115;DHT22;6121;49.810;6.418;2024-03-02T05:49:28;7.80;99.90
12115;DHT22;6121;49.810;6.418;2024-03-02T05:51:55;7.70;99.90
12115;DHT22;6121;49.810;6.418;2024-03-02T05:54:21;7.70;99.90
12115;DHT22;6121;49.810;6.418;2024-03-02T05:56:47;7.70;99.90
12115;DHT22;6121;49.810;6.418;2024-03-02T05:59:13;7.80;99.90
12115;DHT22;6121;49.810;6.418;2024-03-02T06:01:40;8.30;99.90
12115;DHT22;6121;49.810;6.418;2024-03-02T06:04:06;7.80;99.90
12115;DHT22;6121;49.810;6.418;2024-03-02T06:06:33;7.80;99.90
12115;DHT22;6121;49.810;6.418;2024-03-02T06:09:03;7.80;99.90
12115;DHT22;6121;49.810;6.418;2024-03-02T06:14:00;7.80;99.90
12115;DHT22;6121;49.810;6.418;2024-03-02T06:18:52;7.80;99.90
12115;DHT22;6121;49.810;6.418;2024-03-02T06:21:20;7.80;99.90
12115;DHT22;6121;49.810;6.418;2024-03-02T06:23:46;7.80;99.90
12115;DHT22;6121;49.810;6.418;2024-03-02T06:28:38;7.80;99.90
12115;DHT22;6121;49.810;6.418;2024-03-02T06:31:04;7.80;99.90
12115;DHT22;6121;49.810;6.418;2024-03-02T06:33:30;7.80;99.90
12115;DHT22;6121;49.810;6.418;2024-03-02T06:35:56;7.90;99.90
12115;DHT22;6121;49.810;6.418;2024-03-02T06:40:48;8.00;99.90
12115;DHT22;6121;49.810;6.418;2024-03-02T06:43:14;7.90;99.90
12115;DHT22;6121;49.810;6.418;2024-03-02T06:45:40;7.80;99.90
12115;DHT22;6121;49.810;6.418;2024-03-02T06:48:06;7.90;99.90
12115;DHT22;6121;49.810;6.418;2024-03-02T06:50:32;7.90;99.90
12115;DHT22;6121;49.810;6.418;2024-03-02T06:52:58;7.90;99.90
12115;DHT22;6121;49.810;6.418;2024-03-02T06:55:24;7.90;99.90
12115;DHT22;6121;49.810;6.418;2024-03-02T06:57:50;7.90;99.90
12115;DHT22;6121;49.810;6.418;2024-03-02T07:02:46;8.00;99.90
12115;DHT22;6121;49.810;6.418;2024-03-02T07:05:12;8.00;99.90
12115;DHT22;6121;49.810;6.418;2024-03-02T07:07:38;8.00;99.90
12115;DHT22;6121;49.810;6.418;2024-03-02T07:10:04;8.00;99.90
12115;DHT22;6121;49.810;6.418;2024-03-02T07:14:57;8.10;99.90
12115;DHT22;6121;49.810;6.418;2024-03-02T07:17:31;8.10;99.90
12115;DHT22;6121;49.810;6.418;2024-03-02T07:22:24;8.10;99.90
12115;DHT22;6121;49.810;6.418;2024-03-02T07:24:50;8.30;99.90
12115;DHT22;6121;49.810;6.418;2024-03-02T07:27:16;8.40;99.90
12115;DHT22;6121;49.810;6.418;2024-03-02T07:29:43;8.40;99.90
12115;DHT22;6121;49.810;6.418;2024-03-02T07:32:10;8.50;99.90
12115;DHT22;6121;49.810;6.418;2024-03-02T07:34:36;8.50;99.90
12115;DHT22;6121;49.810;6.418;2024-03-02T07:37:03;8.60;99.90
12115;DHT22;6121;49.810;6.418;2024-03-02T07:39:29;8.70;99.90
12115;DHT22;6121;49.810;6.418;2024-03-02T07:41:55;8.70;99.90
12115;DHT22;6121;49.810;6.418;2024-03-02T07:44:22;8.80;99.90
12115;DHT22;6121;49.810;6.418;2024-03-02T07:46:48;9.10;99.90
12115;DHT22;6121;49.810;6.418;2024-03-02T07:49:20;9.30;99.90
12115;DHT22;6121;49.810;6.418;2024-03-02T07:51:46;9.30;99.90
12115;DHT22;6121;49.810;6.418;2024-03-02T07:54:12;9.40;99.90
12115;DHT22;6121;49.810;6.418;2024-03-02T07:56:38;9.10;99.90
12115;DHT22;6121;49.810;6.418;2024-03-02T08:03:59;9.00;99.90
12115;DHT22;6121;49.810;6.418;2024-03-02T08:06:28;9.00;99.90
12115;DHT22;6121;49.810;6.418;2024-03-02T08:08:55;9.00;99.90
12115;DHT22;6121;49.810;6.418;2024-03-02T08:13:48;9.00;99.90
12115;DHT22;6121;49.810;6.418;2024-03-02T08:16:17;9.00;99.90
12115;DHT22;6121;49.810;6.418;2024-03-02T08:18:50;9.20;99.90
12115;DHT22;6121;49.810;6.418;2024-03-02T08:21:16;9.30;99.90
12115;DHT22;6121;49.810;6.418;2024-03-02T08:23:43;9.50;99.90
12115;DHT22;6121;49.810;6.418;2024-03-02T08:28:36;10.10;99.90
12115;DHT22;6121;49.810;6.418;2024-03-02T08:31:08;10.40;99.90
12115;DHT22;6121;49.810;6.418;2024-03-02T08:38:28;10.70;99.90
12115;DHT22;6121;49.810;6.418;2024-03-02T08:43:21;11.10;99.90
12115;DHT22;6121;49.810;6.418;2024-03-02T08:45:48;11.60;99.90
12115;DHT22;6121;49.810;6.418;2024-03-02T08:48:14;11.40;99.90
12115;DHT22;6121;49.810;6.418;2024-03-02T08:50:40;10.80;99.90
12115;DHT22;6121;49.810;6.418;2024-03-02T08:53:07;10.50;99.90
12115;DHT22;6121;49.810;6.418;2024-03-02T08:55:33;10.60;99.90
12115;DHT22;6121;49.810;6.418;2024-03-02T08:57:58;10.30;99.90
12115;DHT22;6121;49.810;6.418;2024-03-02T09:00:25;10.20;99.90
12115;DHT22;6121;49.810;6.418;2024-03-02T09:02:51;10.40;99.90
12115;DHT22;6121;49.810;6.418;2024-03-02T09:05:17;10.10;99.90
12115;DHT22;6121;49.810;6.418;2024-03-02T09:10:09;10.00;99.90
12115;DHT22;6121;49.810;6.418;2024-03-02T09:12:35;9.80;99.90
12115;DHT22;6121;49.810;6.418;2024-03-02T09:15:02;10.30;99.90
12115;DHT22;6121;49.810;6.418;2024-03-02T09:19:56;9.90;99.90
12115;DHT22;6121;49.810;6.418;2024-03-02T09:22:22;9.90;99.90
12115;DHT22;6121;49.810;6.418;2024-03-02T09:27:15;9.90;99.90
12115;DHT22;6121;49.810;6.418;2024-03-02T09:29:41;9.90;99.90
12115;DHT22;6121;49.810;6.418;2024-03-02T09:32:08;9.70;99.90
12115;DHT22;6121;49.810;6.418;2024-03-02T09:34:34;9.60;99.90
12115;DHT22;6121;49.810;6.418;2024-03-02T09:37:05;10.10;99.90
12115;DHT22;6121;49.810;6.418;2024-03-02T09:39:31;10.50;99.90
12115;DHT22;6121;49.810;6.418;2024-03-02T09:41:58;10.00;99.90
12115;DHT22;6121;49.810;6.418;2024-03-02T09:44:25;9.90;99.90
12115;DHT22;6121;49.810;6.418;2024-03-02T09:49:18;10.10;99.90
12115;DHT22;6121;49.810;6.418;2024-03-02T09:51:48;9.90;99.90
12115;DHT22;6121;49.810;6.418;2024-03-02T09:54:16;10.10;99.90
12115;DHT22;6121;49.810;6.418;2024-03-02T10:01:35;10.80;99.90
12115;DHT22;6121;49.810;6.418;2024-03-02T10:04:01;11.00;99.90
12115;DHT22;6121;49.810;6.418;2024-03-02T10:06:28;11.10;99.90
12115;DHT22;6121;49.810;6.418;2024-03-02T10:11:32;10.80;99.90
12115;DHT22;6121;49.810;6.418;2024-03-02T10:14:11;10.80;99.90
12115;DHT22;6121;49.810;6.418;2024-03-02T10:16:42;10.50;99.90
12115;DHT22;6121;49.810;6.418;2024-03-02T10:19:24;10.40;99.90
12115;DHT22;6121;49.810;6.418;2024-03-02T10:24:20;10.60;99.90
12115;DHT22;6121;49.810;6.418;2024-03-02T10:26:47;10.70;99.90
12115;DHT22;6121;49.810;6.418;2024-03-02T10:29:13;10.60;99.90
12115;DHT22;6121;49.810;6.418;2024-03-02T10:31:41;10.50;99.90
12115;DHT22;6121;49.810;6.418;2024-03-02T10:34:08;10.50;99.90
12115;DHT22;6121;49.810;6.418;2024-03-02T10:43:58;10.60;99.90
12115;DHT22;6121;49.810;6.418;2024-03-02T10:46:29;11.20;99.90
12115;DHT22;6121;49.810;6.418;2024-03-02T10:48:57;12.30;99.90
12115;DHT22;6121;49.810;6.418;2024-03-02T10:54:00;12.50;99.90
12115;DHT22;6121;49.810;6.418;2024-03-02T10:56:31;12.40;99.90
12115;DHT22;6121;49.810;6.418;2024-03-02T11:01:39;11.60;99.90
12115;DHT22;6121;49.810;6.418;2024-03-02T11:06:36;11.60;99.90
12115;DHT22;6121;49.810;6.418;2024-03-02T11:09:07;11.60;99.90
12115;DHT22;6121;49.810;6.418;2024-03-02T11:11:41;11.50;99.90
12115;DHT22;6121;49.810;6.418;2024-03-02T11:14:13;11.60;99.90
12115;DHT22;6121;49.810;6.418;2024-03-02T11:16:42;11.80;99.90
12115;DHT22;6121;49.810;6.418;2024-03-02T11:21:38;12.10;99.90
12115;DHT22;6121;49.810;6.418;2024-03-02T11:26:53;12.30;99.90
12115;DHT22;6121;49.810;6.418;2024-03-02T11:32:17;12.30;99.90
12115;DHT22;6121;49.810;6.418;2024-03-02T11:37:13;12.20;99.90
12115;DHT22;6121;49.810;6.418;2024-03-02T11:42:09;12.50;99.90
12115;DHT22;6121;49.810;6.418;2024-03-02T11:44:39;12.40;99.90
12115;DHT22;6121;49.810;6.418;2024-03-02T11:47:08;12.60;99.90
12115;DHT22;6121;49.810;6.418;2024-03-02T11:49:39;12.70;99.90
12115;DHT22;6121;49.810;6.418;2024-03-02T11:52:06;12.70;99.90
12115;DHT22;6121;49.810;6.418;2024-03-02T11:54:37;12.70;99.90
12115;DHT22;6121;49.810;6.418;2024-03-02T11:57:08;13.20;99.90
12115;DHT22;6121;49.810;6.418;2024-03-02T12:04:29;14.40;99.90
12115;DHT22;6121;49.810;6.418;2024-03-02T12:06:56;15.40;99.90
12115;DHT22;6121;49.810;6.418;2024-03-02T12:09:26;16.40;99.90
12115;DHT22;6121;49.810;6.418;2024-03-02T12:12:06;16.90;99.90
12115;DHT22;6121;49.810;6.418;2024-03-02T12:14:33;17.30;99.90
12115;DHT22;6121;49.810;6.418;2024-03-02T12:16:59;17.70;99.90
12115;DHT22;6121;49.810;6.418;2024-03-02T12:21:53;17.20;99.90
12115;DHT22;6121;49.810;6.418;2024-03-02T12:24:21;16.60;99.90
12115;DHT22;6121;49.810;6.418;2024-03-02T12:26:49;17.30;99.90
12115;DHT22;6121;49.810;6.418;2024-03-02T12:29:16;18.50;99.90
12115;DHT22;6121;49.810;6.418;2024-03-02T12:31:45;18.50;99.90
12115;DHT22;6121;49.810;6.418;2024-03-02T12:34:13;18.00;99.90
12115;DHT22;6121;49.810;6.418;2024-03-02T12:36:39;17.80;99.90
12115;DHT22;6121;49.810;6.418;2024-03-02T12:39:10;16.70;99.90
12115;DHT22;6121;49.810;6.418;2024-03-02T12:41:39;17.30;99.90
12115;DHT22;6121;49.810;6.418;2024-03-02T12:44:05;18.90;99.90
12115;DHT22;6121;49.810;6.418;2024-03-02T12:49:04;16.90;99.90
12115;DHT22;6121;49.810;6.418;2024-03-02T12:53:57;16.80;99.90
12115;DHT22;6121;49.810;6.418;2024-03-02T12:56:24;17.70;99.90
12115;DHT22;6121;49.810;6.418;2024-03-02T12:58:57;17.80;99.90
12115;DHT22;6121;49.810;6.418;2024-03-02T13:01:23;18.80;99.90
12115;DHT22;6121;49.810;6.418;2024-03-02T13:03:49;18.60;99.90
12115;DHT22;6121;49.810;6.418;2024-03-02T13:06:19;17.50;99.90
12115;DHT22;6121;49.810;6.418;2024-03-02T13:11:12;16.20;99.90
12115;DHT22;6121;49.810;6.418;2024-03-02T13:13:42;15.70;99.90
12115;DHT22;6121;49.810;6.418;2024-03-02T13:16:11;15.80;99.90
12115;DHT22;6121;49.810;6.418;2024-03-02T13:23:34;15.50;99.90
12115;DHT22;6121;49.810;6.418;2024-03-02T13:26:00;15.10;99.90
12115;DHT22;6121;49.810;6.418;2024-03-02T13:28:27;15.30;99.90
12115;DHT22;6121;49.810;6.418;2024-03-02T13:30:52;14.90;99.90
12115;DHT22;6121;49.810;6.418;2024-03-02T13:33:18;15.30;99.90
12115;DHT22;6121;49.810;6.418;2024-03-02T13:35:51;14.70;99.90
12115;DHT22;6121;49.810;6.418;2024-03-02T13:38:20;14.60;99.90
12115;DHT22;6121;49.810;6.418;2024-03-02T13:40:49;14.50;99.90
12115;DHT22;6121;49.810;6.418;2024-03-02T13:43:18;14.50;99.90
12115;DHT22;6121;49.810;6.418;2024-03-02T13:45:46;14.50;99.90
12115;DHT22;6121;49.810;6.418;2024-03-02T13:48:13;14.60;99.90
12115;DHT22;6121;49.810;6.418;2024-03-02T13:50:40;14.50;99.90
12115;DHT22;6121;49.810;6.418;2024-03-02T13:53:06;14.40;99.90
12115;DHT22;6121;49.810;6.418;2024-03-02T13:57:59;14.20;99.90
12115;DHT22;6121;49.810;6.418;2024-03-02T14:00:25;14.00;99.90
12115;DHT22;6121;49.810;6.418;2024-03-02T14:02:52;14.00;99.90
12115;DHT22;6121;49.810;6.418;2024-03-02T14:10:11;14.00;99.90
12115;DHT22;6121;49.810;6.418;2024-03-02T14:12:38;14.30;99.90
12115;DHT22;6121;49.810;6.418;2024-03-02T14:15:04;14.30;99.90
12115;DHT22;6121;49.810;6.418;2024-03-02T14:17:31;14.30;99.90
12115;DHT22;6121;49.810;6.418;2024-03-02T14:19:59;14.30;99.90
12115;DHT22;6121;49.810;6.418;2024-03-02T14:22:25;14.40;99.90
12115;DHT22;6121;49.810;6.418;2024-03-02T14:24:51;14.30;99.90
12115;DHT22;6121;49.810;6.418;2024-03-02T14:27:17;14.40;99.90
12115;DHT22;6121;49.810;6.418;2024-03-02T14:29:44;14.50;99.90
12115;DHT22;6121;49.810;6.418;2024-03-02T14:32:10;14.70;99.90
12115;DHT22;6121;49.810;6.418;2024-03-02T14:34:36;14.40;99.90
12115;DHT22;6121;49.810;6.418;2024-03-02T14:37:02;14.20;99.90
12115;DHT22;6121;49.810;6.418;2024-03-02T14:39:28;14.00;99.90
12115;DHT22;6121;49.810;6.418;2024-03-02T14:41:55;14.10;99.90
12115;DHT22;6121;49.810;6.418;2024-03-02T14:44:21;13.80;99.90
12115;DHT22;6121;49.810;6.418;2024-03-02T14:49:23;13.70;99.90
12115;DHT22;6121;49.810;6.418;2024-03-02T14:51:49;13.60;99.90
12115;DHT22;6121;49.810;6.418;2024-03-02T14:56:41;13.70;99.90
12115;DHT22;6121;49.810;6.418;2024-03-02T14:59:07;13.80;99.90
12115;DHT22;6121;49.810;6.418;2024-03-02T15:03:59;13.80;99.90
12115;DHT22;6121;49.810;6.418;2024-03-02T15:06:25;13.70;99.90
12115;DHT22;6121;49.810;6.418;2024-03-02T15:08:51;13.60;99.90
12115;DHT22;6121;49.810;6.418;2024-03-02T15:11:17;13.60;99.90
12115;DHT22;6121;49.810;6.418;2024-03-02T15:13:43;13.80;99.90
12115;DHT22;6121;49.810;6.418;2024-03-02T15:16:09;13.60;99.90
12115;DHT22;6121;49.810;6.418;2024-03-02T15:18:35;13.50;99.90
12115;DHT22;6121;49.810;6.418;2024-03-02T15:21:00;13.50;99.90
12115;DHT22;6121;49.810;6.418;2024-03-02T15:25:55;13.50;99.90
12115;DHT22;6121;49.810;6.418;2024-03-02T15:28:22;13.50;99.90
12115;DHT22;6121;49.810;6.418;2024-03-02T15:30:47;13.10;99.90
12115;DHT22;6121;49.810;6.418;2024-03-02T15:33:13;13.40;99.90
12115;DHT22;6121;49.810;6.418;2024-03-02T15:35:41;13.30;99.90
12115;DHT22;6121;49.810;6.418;2024-03-02T15:38:07;13.20;99.90
12115;DHT22;6121;49.810;6.418;2024-03-02T15:40:37;13.10;99.90
12115;DHT22;6121;49.810;6.418;2024-03-02T15:43:03;13.20;99.90
12115;DHT22;6121;49.810;6.418;2024-03-02T15:45:29;13.10;99.90
12115;DHT22;6121;49.810;6.418;2024-03-02T15:48:00;13.20;99.90
12115;DHT22;6121;49.810;6.418;2024-03-02T15:50:27;13.20;99.90
12115;DHT22;6121;49.810;6.418;2024-03-02T15:52:53;13.20;99.90
12115;DHT22;6121;49.810;6.418;2024-03-02T15:55:21;13.20;99.90
12115;DHT22;6121;49.810;6.418;2024-03-02T15:57:47;13.00;99.90
12115;DHT22;6121;49.810;6.418;2024-03-02T16:00:13;13.00;99.90
12115;DHT22;6121;49.810;6.418;2024-03-02T16:02:40;13.00;99.90
12115;DHT22;6121;49.810;6.418;2024-03-02T16:05:06;13.00;99.90
12115;DHT22;6121;49.810;6.418;2024-03-02T16:07:32;13.00;99.90
12115;DHT22;6121;49.810;6.418;2024-03-02T16:09:58;13.20;99.90
12115;DHT22;6121;49.810;6.418;2024-03-02T16:12:24;13.20;99.90
12115;DHT22;6121;49.810;6.418;2024-03-02T16:17:17;13.00;99.90
12115;DHT22;6121;49.810;6.418;2024-03-02T16:22:09;12.90;99.90
12115;DHT22;6121;49.810;6.418;2024-03-02T16:27:03;12.90;99.90
12115;DHT22;6121;49.810;6.418;2024-03-02T16:29:29;12.90;99.90
12115;DHT22;6121;49.810;6.418;2024-03-02T16:31:55;12.90;99.90
12115;DHT22;6121;49.810;6.418;2024-03-02T16:34:21;12.70;99.90
12115;DHT22;6121;49.810;6.418;2024-03-02T16:36:47;12.60;99.90
12115;DHT22;6121;49.810;6.418;2024-03-02T16:39:13;12.50;99.90
12115;DHT22;6121;49.810;6.418;2024-03-02T16:41:39;12.20;99.90
12115;DHT22;6121;49.810;6.418;2024-03-02T16:44:08;12.30;99.90
12115;DHT22;6121;49.810;6.418;2024-03-02T16:46:34;12.10;99.90
12115;DHT22;6121;49.810;6.418;2024-03-02T16:49:00;12.00;99.90
12115;DHT22;6121;49.810;6.418;2024-03-02T16:53:52;11.80;99.90
12115;DHT22;6121;49.810;6.418;2024-03-02T16:56:18;11.80;99.90
12115;DHT22;6121;49.810;6.418;2024-03-02T16:58:44;11.80;99.90
12115;DHT22;6121;49.810;6.418;2024-03-02T17:01:10;11.80;99.90
12115;DHT22;6121;49.810;6.418;2024-03-02T17:03:36;11.70;99.90
12115;DHT22;6121;49.810;6.418;2024-03-02T17:06:02;11.90;99.90
12115;DHT22;6121;49.810;6.418;2024-03-02T17:10:54;11.80;99.90
12115;DHT22;6121;49.810;6.418;2024-03-02T17:13:20;11.80;99.90
12115;DHT22;6121;49.810;6.418;2024-03-02T17:15:46;11.80;99.90
12115;DHT22;6121;49.810;6.418;2024-03-02T17:18:12;12.00;99.90
12115;DHT22;6121;49.810;6.418;2024-03-02T17:23:04;11.60;99.90
12115;DHT22;6121;49.810;6.418;2024-03-02T17:25:30;11.60;99.90
12115;DHT22;6121;49.810;6.418;2024-03-02T17:28:22;11.40;99.90
12115;DHT22;6121;49.810;6.418;2024-03-02T17:30:50;11.40;99.90
12115;DHT22;6121;49.810;6.418;2024-03-02T17:33:16;11.50;99.90
12115;DHT22;6121;49.810;6.418;2024-03-02T17:35:42;11.70;99.90
12115;DHT22;6121;49.810;6.418;2024-03-02T17:38:13;11.50;99.90
12115;DHT22;6121;49.810;6.418;2024-03-02T17:45:32;11.30;99.90
12115;DHT22;6121;49.810;6.418;2024-03-02T17:50:24;11.40;99.90
12115;DHT22;6121;49.810;6.418;2024-03-02T17:55:16;11.30;99.90
12115;DHT22;6121;49.810;6.418;2024-03-02T17:57:42;11.20;99.90
12115;DHT22;6121;49.810;6.418;2024-03-02T18:00:08;11.40;99.90
12115;DHT22;6121;49.810;6.418;2024-03-02T18:02:40;11.20;99.90
12115;DHT22;6121;49.810;6.418;2024-03-02T18:07:33;11.10;99.90
12115;DHT22;6121;49.810;6.418;2024-03-02T18:10:05;10.90;99.90
12115;DHT22;6121;49.810;6.418;2024-03-02T18:14:58;10.70;99.90
12115;DHT22;6121;49.810;6.418;2024-03-02T18:17:24;10.70;99.90
12115;DHT22;6121;49.810;6.418;2024-03-02T18:19:51;10.70;99.90
12115;DHT22;6121;49.810;6.418;2024-03-02T18:22:17;10.60;99.90
12115;DHT22;6121;49.810;6.418;2024-03-02T18:24:43;10.60;99.90
12115;DHT22;6121;49.810;6.418;2024-03-02T18:27:11;10.70;99.90
12115;DHT22;6121;49.810;6.418;2024-03-02T18:32:05;10.70;99.90
12115;DHT22;6121;49.810;6.418;2024-03-02T18:36:57;10.60;99.90
12115;DHT22;6121;49.810;6.418;2024-03-02T18:39:24;10.50;99.90
12115;DHT22;6121;49.810;6.418;2024-03-02T18:41:50;10.40;99.90
12115;DHT22;6121;49.810;6.418;2024-03-02T18:44:16;10.40;99.90
12115;DHT22;6121;49.810;6.418;2024-03-02T18:46:42;10.70;99.90
12115;DHT22;6121;49.810;6.418;2024-03-02T18:49:08;10.30;99.90
12115;DHT22;6121;49.810;6.418;2024-03-02T18:51:34;10.20;99.90
12115;DHT22;6121;49.810;6.418;2024-03-02T18:53:59;10.40;99.90
12115;DHT22;6121;49.810;6.418;2024-03-02T18:56:25;9.90;99.90
12115;DHT22;6121;49.810;6.418;2024-03-02T19:01:18;9.90;99.90
12115;DHT22;6121;49.810;6.418;2024-03-02T19:03:45;10.30;99.90
12115;DHT22;6121;49.810;6.418;2024-03-02T19:06:14;10.30;99.90
12115;DHT22;6121;49.810;6.418;2024-03-02T19:08:40;10.20;99.90
12115;DHT22;6121;49.810;6.418;2024-03-02T19:11:13;10.10;99.90
12115;DHT22;6121;49.810;6.418;2024-03-02T19:13:40;10.00;99.90
12115;DHT22;6121;49.810;6.418;2024-03-02T19:16:13;10.10;99.90
12115;DHT22;6121;49.810;6.418;2024-03-02T19:18:40;9.70;99.90
12115;DHT22;6121;49.810;6.418;2024-03-02T19:21:06;9.60;99.90
12115;DHT22;6121;49.810;6.418;2024-03-02T19:25:59;9.80;99.90
12115;DHT22;6121;49.810;6.418;2024-03-02T19:28:25;10.30;99.90
12115;DHT22;6121;49.810;6.418;2024-03-02T19:30:51;9.90;99.90
12115;DHT22;6121;49.810;6.418;2024-03-02T19:33:17;9.90;99.90
12115;DHT22;6121;49.810;6.418;2024-03-02T19:35:44;10.00;99.90